Time;durP1;ratioP1;P1;durP2;ratioP2;P2;SDS_P1;SDS_P2;PMS_P1;PMS_P2;Temp;Humidity;BMP_temperature;BMP_pressure;BME280_temperature;BME280_humidity;BME280_pressure;Samples;Min_cycle;Max_cycle;Signal;HPM_P1;HPM_P2
2022/06/14 00:00:54;;;;;;;3.88;0.77;;;;;;;12.36;69.87;102147.81;4947485;28;20059;-71
2022/06/14 00:03:34;;;;;;;4.43;1.17;;;;;;;12.33;69.87;102150.69;4945442;28;20042;-71
2022/06/14 00:06:26;;;;;;;6.28;1.20;;;;;;;12.28;70.43;102156.28;4947055;28;20452;-71
2022/06/14 00:08:51;;;;;;;5.10;1.17;;;;;;;12.24;70.57;102147.94;4941325;28;20521;-71
2022/06/14 00:11:20;;;;;;;4.50;1.25;;;;;;;12.21;70.59;102150.00;4943647;28;20139;-71
2022/06/14 00:13:47;;;;;;;2.75;1.02;;;;;;;12.17;70.40;102148.63;4943799;28;20030;-71
2022/06/14 00:16:14;;;;;;;5.95;2.10;;;;;;;12.13;70.45;102145.47;4947162;28;20063;-71
2022/06/14 00:18:39;;;;;;;6.88;1.20;;;;;;;12.09;70.37;102138.84;4947892;28;20042;-71
2022/06/14 00:21:05;;;;;;;6.43;1.20;;;;;;;12.06;70.22;102139.13;4953033;28;20098;-71
2022/06/14 00:23:31;;;;;;;5.32;1.50;;;;;;;12.02;70.74;102141.19;4944492;28;20055;-72
2022/06/14 00:25:58;;;;;;;5.32;2.17;;;;;;;11.94;71.22;102140.19;4947291;28;20517;-71
2022/06/14 00:28:26;;;;;;;4.55;1.73;;;;;;;11.91;71.78;102146.47;4948289;28;20405;-71
2022/06/14 00:30:57;;;;;;;2.80;1.08;;;;;;;11.86;72.00;102146.81;4926235;28;20027;-71
2022/06/14 00:33:23;;;;;;;3.55;1.48;;;;;;;11.81;72.35;102146.41;4946122;28;20071;-71
2022/06/14 00:35:55;;;;;;;4.35;1.38;;;;;;;11.78;72.50;102149.28;4930905;28;20050;-71
2022/06/14 00:38:21;;;;;;;9.27;1.40;;;;;;;11.78;72.79;102144.06;4969786;28;20123;-71
2022/06/14 00:40:54;;;;;;;5.00;2.10;;;;;;;11.77;72.94;102134.66;4946141;28;20465;-71
2022/06/14 00:43:21;;;;;;;5.68;1.15;;;;;;;11.62;73.13;102141.13;4942823;28;20453;-71
2022/06/14 00:45:48;;;;;;;5.32;1.50;;;;;;;11.44;73.59;102130.53;4944518;28;20039;-71
2022/06/14 00:48:30;;;;;;;8.18;1.70;;;;;;;11.35;74.44;102129.53;4948165;28;20069;-71
2022/06/14 00:51:13;;;;;;;2.35;1.10;;;;;;;11.23;74.90;102135.75;4945652;28;20036;-71
2022/06/14 00:53:38;;;;;;;3.15;1.23;;;;;;;11.16;75.47;102135.44;4945289;28;20106;-71
2022/06/14 00:56:06;;;;;;;3.40;1.48;;;;;;;11.17;75.23;102126.69;4951972;28;20482;-71
2022/06/14 00:58:57;;;;;;;3.45;1.25;;;;;;;11.18;75.66;102133.53;4946403;28;20682;-71
2022/06/14 01:01:27;;;;;;;8.25;2.05;;;;;;;11.22;75.35;102132.31;4946064;28;20141;-71
2022/06/14 01:04:04;;;;;;;7.90;1.60;;;;;;;11.23;74.96;102136.56;4951367;28;20031;-71
2022/06/14 01:06:48;;;;;;;5.10;1.38;;;;;;;11.23;74.92;102131.38;4946092;28;20058;-72
2022/06/14 01:09:23;;;;;;;5.18;1.55;;;;;;;11.23;75.05;102123.59;4947493;28;20031;-71
2022/06/14 01:11:53;;;;;;;8.60;1.75;;;;;;;11.23;74.65;102133.16;4944436;28;20461;-71
2022/06/14 01:14:30;;;;;;;7.43;1.52;;;;;;;11.19;74.90;102127.41;4946629;28;20039;-72
2022/06/14 01:16:55;;;;;;;4.25;1.45;;;;;;;11.09;75.33;102129.94;4948102;28;20093;-71
2022/06/14 01:19:24;;;;;;;5.38;1.55;;;;;;;11.06;75.31;102130.19;4952823;28;20035;-71
2022/06/14 01:22:13;;;;;;;6.60;1.70;;;;;;;11.05;75.34;102125.09;4949146;28;20031;-71
2022/06/14 01:24:42;;;;;;;7.35;2.05;;;;;;;11.03;75.52;102130.41;4951947;28;20121;-71
2022/06/14 01:27:13;;;;;;;5.57;1.73;;;;;;;11.04;75.25;102131.25;4949639;28;20050;-71
2022/06/14 01:29:42;;;;;;;8.40;3.17;;;;;;;11.02;75.35;102127.94;4946519;28;20520;-71
2022/06/14 01:32:11;;;;;;;6.32;1.88;;;;;;;11.01;74.89;102134.91;4951807;28;20084;-71
2022/06/14 01:34:50;;;;;;;5.60;2.08;;;;;;;11.02;75.30;102135.72;4928616;29;20106;-71
2022/06/14 01:37:16;;;;;;;7.07;1.65;;;;;;;11.01;75.65;102128.91;4945978;28;20082;-71
2022/06/14 01:39:42;;;;;;;8.15;2.30;;;;;;;10.99;75.63;102125.63;4943454;28;20050;-71
2022/06/14 01:42:23;;;;;;;7.03;1.95;;;;;;;10.96;76.28;102120.66;4944615;28;20035;-71
2022/06/14 01:45:02;;;;;;;5.63;1.98;;;;;;;10.95;76.17;102132.84;4944476;28;20040;-71
2022/06/14 01:47:34;;;;;;;7.35;1.70;;;;;;;10.92;75.94;102130.47;4948497;28;20066;-71
2022/06/14 01:53:33;;;;;;;10.23;2.38;;;;;;;10.87;76.02;102119.69;4947123;28;20152;-72
2022/06/14 01:56:03;;;;;;;6.82;2.05;;;;;;;10.85;76.21;102116.34;4944936;28;20406;-71
2022/06/14 01:58:33;;;;;;;6.18;2.58;;;;;;;10.79;76.10;102122.88;4946687;28;20051;-71
2022/06/14 02:01:14;;;;;;;5.35;1.88;;;;;;;10.66;76.46;102110.09;4962274;28;20035;-71
2022/06/14 02:07:11;;;;;;;7.60;2.28;;;;;;;10.57;77.47;102128.16;4945104;28;20058;-72
2022/06/14 02:09:48;;;;;;;6.25;2.13;;;;;;;10.56;77.36;102122.16;4946143;28;20051;-71
2022/06/14 02:12:20;;;;;;;7.75;2.10;;;;;;;10.57;77.13;102128.16;4944826;28;20293;-71
2022/06/14 02:14:51;;;;;;;7.93;2.13;;;;;;;10.58;77.46;102125.44;4945334;28;20035;-71
2022/06/14 02:17:24;;;;;;;6.55;2.00;;;;;;;10.58;77.25;102135.00;4925280;29;20494;-71
2022/06/14 02:19:59;;;;;;;7.57;2.45;;;;;;;10.57;77.36;102117.78;4947189;28;20066;-71
2022/06/14 02:22:33;;;;;;;6.03;2.22;;;;;;;10.56;77.53;102118.72;4947048;28;20054;-71
2022/06/14 02:25:12;;;;;;;4.38;1.75;;;;;;;10.54;77.80;102118.03;4950141;28;20505;-71
2022/06/14 02:27:46;;;;;;;7.07;1.92;;;;;;;10.51;77.74;102124.31;4928062;28;20131;-71
2022/06/14 02:30:27;;;;;;;6.07;2.13;;;;;;;10.48;77.74;102125.34;4947963;28;20414;-71
2022/06/14 02:33:05;;;;;;;7.88;2.88;;;;;;;10.46;77.90;102122.06;4947756;28;20517;-71
2022/06/14 02:35:39;;;;;;;7.00;2.20;;;;;;;10.43;78.15;102119.72;4944425;28;20043;-71
2022/06/14 02:38:15;;;;;;;8.60;2.17;;;;;;;10.39;78.07;102114.91;4947213;28;20042;-71
2022/06/14 02:40:47;;;;;;;10.05;2.92;;;;;;;10.37;78.24;102103.84;4945846;28;20035;-72
2022/06/14 02:43:22;;;;;;;8.60;2.50;;;;;;;10.35;78.46;102118.69;4945694;28;20477;-71
2022/06/14 02:46:00;;;;;;;4.68;2.20;;;;;;;10.32;78.24;102112.81;4928713;28;20371;-71
2022/06/14 02:48:47;;;;;;;7.10;2.92;;;;;;;10.30;78.50;102108.63;4945220;28;20407;-71
2022/06/14 02:51:32;;;;;;;9.45;1.83;;;;;;;10.25;78.68;102109.03;4947249;28;20502;-71
2022/06/14 02:54:08;;;;;;;7.22;2.20;;;;;;;10.18;78.52;102107.03;4962081;28;20031;-71
2022/06/14 02:56:49;;;;;;;2.75;1.80;;;;;;;10.11;78.86;102106.69;4947472;28;21652;-71
2022/06/14 02:59:27;;;;;;;8.98;2.30;;;;;;;9.93;78.93;102104.59;4948778;28;20081;-72
2022/06/14 03:02:12;;;;;;;7.25;2.17;;;;;;;9.78;79.62;102107.56;4959596;28;20512;-71
2022/06/14 03:04:47;;;;;;;7.88;3.13;;;;;;;9.65;80.47;102092.97;4947122;28;20035;-71
2022/06/14 03:07:19;;;;;;;9.40;2.38;;;;;;;9.55;80.88;102092.84;4957042;28;20035;-71
2022/06/14 03:09:47;;;;;;;6.75;2.72;;;;;;;9.45;81.12;102091.91;4944258;28;20062;-71
2022/06/14 03:12:31;;;;;;;5.88;2.72;;;;;;;9.35;81.44;102089.19;4932409;29;20393;-71
2022/06/14 03:15:23;;;;;;;7.80;2.53;;;;;;;9.27;81.69;102099.31;4929171;28;20126;-71
2022/06/14 03:18:21;;;;;;;8.30;2.38;;;;;;;9.28;82.11;102100.13;4945518;28;20039;-71
2022/06/14 03:21:15;;;;;;;9.35;2.47;;;;;;;9.34;82.02;102095.31;4947554;28;20122;-72
2022/06/14 03:23:43;;;;;;;;;;;;;;;9.42;81.72;102097.31;4944703;28;20074;-71
2022/06/14 03:26:25;;;;;;;7.78;2.47;;;;;;;9.48;81.52;102093.44;4946900;28;19921;-71
2022/06/14 03:29:17;;;;;;;10.90;3.05;;;;;;;9.52;81.20;102095.66;4949121;28;20380;-71
2022/06/14 03:31:53;;;;;;;8.00;2.60;;;;;;;9.56;81.25;102093.66;4933926;28;20581;-71
2022/06/14 03:34:19;;;;;;;9.25;2.70;;;;;;;9.58;81.06;102089.19;4943123;28;20035;-71
2022/06/14 03:36:44;;;;;;;13.90;3.00;;;;;;;9.59;80.68;102087.41;4945242;28;20123;-71
2022/06/14 03:39:17;;;;;;;9.23;2.92;;;;;;;9.53;81.00;102088.72;4946473;28;20038;-72
2022/06/14 03:41:45;;;;;;;8.18;2.67;;;;;;;9.49;81.09;102092.50;4946378;28;20043;-71
2022/06/14 03:44:12;;;;;;;11.07;2.83;;;;;;;9.36;81.50;102092.59;4931382;29;20126;-71
2022/06/14 03:46:50;;;;;;;5.60;2.30;;;;;;;9.29;81.62;102094.03;4931086;28;20039;-71
2022/06/14 03:49:20;;;;;;;7.32;2.70;;;;;;;9.23;82.21;102100.47;4947931;28;20445;-71
2022/06/14 03:52:04;;;;;;;6.20;2.40;;;;;;;9.19;82.27;102099.03;4946915;28;20114;-71
2022/06/14 03:54:53;;;;;;;10.93;2.75;;;;;;;9.23;82.50;102110.84;4961476;28;20356;-71
2022/06/14 03:57:34;;;;;;;11.15;3.05;;;;;;;9.30;82.47;102101.66;4943907;28;20166;-71
2022/06/14 04:00:09;;;;;;;8.57;2.95;;;;;;;9.37;82.10;102101.22;4943480;28;20053;-71
2022/06/14 04:03:02;;;;;;;5.95;2.97;;;;;;;9.43;82.16;102100.72;4942678;28;20035;-71
2022/06/14 04:05:46;;;;;;;9.68;2.70;;;;;;;9.47;82.05;102100.38;4943413;28;20044;-71
2022/06/14 04:08:37;;;;;;;5.82;2.55;;;;;;;9.51;82.30;102104.41;4944064;28;20490;-71
2022/06/14 04:11:23;;;;;;;7.18;3.08;;;;;;;9.54;82.30;102111.09;4959185;28;20422;-71
2022/06/14 04:14:02;;;;;;;8.73;2.97;;;;;;;9.57;82.58;102110.03;4943490;28;20082;-71
2022/06/14 04:16:53;;;;;;;7.53;3.15;;;;;;;9.59;82.61;102110.72;4944881;28;20035;-71
2022/06/14 04:19:18;;;;;;;5.97;3.35;;;;;;;9.60;82.75;102113.22;4943668;28;20182;-71
2022/06/14 04:21:57;;;;;;;8.77;2.80;;;;;;;9.63;82.96;102115.56;4949533;28;20557;-71
2022/06/14 04:24:25;;;;;;;9.68;3.65;;;;;;;9.65;83.25;102103.31;4945568;28;20086;-71
2022/06/14 04:27:05;;;;;;;6.90;3.10;;;;;;;9.69;83.07;102096.97;4946158;28;20043;-71
2022/06/14 04:30:03;;;;;;;9.32;3.40;;;;;;;9.72;82.94;102096.75;4927733;28;20466;-72
2022/06/14 04:32:36;;;;;;;8.77;3.40;;;;;;;9.77;83.15;102093.78;4939177;28;20039;-71
2022/06/14 04:35:07;;;;;;;7.97;3.30;;;;;;;9.78;83.44;102095.44;4940332;28;20040;-71
2022/06/14 04:37:41;;;;;;;10.13;4.15;;;;;;;9.81;83.63;102099.53;4926854;28;20090;-71
2022/06/14 04:40:13;;;;;;;8.32;3.50;;;;;;;9.84;83.97;102100.13;4944666;28;20039;-71
2022/06/14 04:42:45;;;;;;;8.75;3.60;;;;;;;9.89;83.64;102100.59;4944822;28;20074;-72
2022/06/14 04:45:18;;;;;;;9.80;3.55;;;;;;;9.94;83.93;102105.41;4945646;28;20023;-72
2022/06/14 04:48:10;;;;;;;11.95;3.83;;;;;;;10.00;84.21;102104.97;4923820;28;20038;-72
2022/06/14 04:50:43;;;;;;;7.65;3.92;;;;;;;10.04;84.25;102106.34;4939624;28;20150;-71
2022/06/14 04:53:17;;;;;;;12.18;4.05;;;;;;;10.10;84.48;102105.06;4943904;28;20044;-72
2022/06/14 04:55:52;;;;;;;16.13;4.50;;;;;;;10.17;84.96;102110.56;4929374;28;20130;-72
2022/06/14 04:58:31;;;;;;;14.32;4.72;;;;;;;10.23;85.26;102120.47;4941647;28;20555;-71
2022/06/14 05:01:01;;;;;;;10.07;3.80;;;;;;;10.29;85.15;102109.59;4927619;28;20665;-71
2022/06/14 05:03:35;;;;;;;10.65;4.50;;;;;;;10.37;85.02;102107.25;4940673;28;20036;-71
2022/06/14 05:06:25;;;;;;;10.30;4.88;;;;;;;10.51;84.76;102113.94;4944881;28;20097;-71
2022/06/14 05:08:53;;;;;;;9.18;4.57;;;;;;;10.60;84.63;102118.34;4939422;28;20117;-71
2022/06/14 05:11:40;;;;;;;13.48;4.57;;;;;;;10.72;84.41;102108.78;4947047;28;20098;-71
2022/06/14 05:14:21;;;;;;;11.40;4.38;;;;;;;10.84;84.28;102109.53;4926372;28;20033;-71
2022/06/14 05:16:53;;;;;;;17.23;5.05;;;;;;;10.99;83.93;102116.06;4943941;28;20828;-72
2022/06/14 05:19:38;;;;;;;13.52;4.88;;;;;;;11.10;83.51;102103.00;4948527;28;20174;-71
2022/06/14 05:22:20;;;;;;;17.70;4.90;;;;;;;11.27;82.75;102111.16;4950526;28;20042;-71
2022/06/14 05:24:46;;;;;;;10.18;4.70;;;;;;;11.45;82.48;102104.44;4947980;28;20031;-71
2022/06/14 05:27:34;;;;;;;15.77;4.40;;;;;;;11.64;82.07;102105.44;4947903;28;20472;-71
2022/06/14 05:30:08;;;;;;;11.00;4.35;;;;;;;11.76;80.75;102111.38;4963766;28;20035;-71
2022/06/14 05:32:46;;;;;;;10.30;3.78;;;;;;;11.93;80.29;102109.97;4946429;28;20047;-71
2022/06/14 05:35:36;;;;;;;10.48;4.85;;;;;;;12.19;79.94;102116.31;4947810;28;20210;-71
2022/06/14 05:38:14;;;;;;;14.10;4.82;;;;;;;12.42;78.03;102113.47;4957261;28;20498;-71
2022/06/14 05:40:46;;;;;;;15.25;4.82;;;;;;;12.58;77.04;102105.09;4945783;28;20054;-71
2022/06/14 05:43:14;;;;;;;14.88;3.90;;;;;;;12.81;76.95;102113.47;4944073;28;20035;-71
2022/06/14 05:45:47;;;;;;;14.57;4.18;;;;;;;13.05;76.05;102113.00;4945338;28;20037;-72
2022/06/14 05:48:16;;;;;;;;;;;;;;;13.22;75.32;102101.03;4962627;28;20035;-71
2022/06/14 05:50:45;;;;;;;10.45;3.42;;;;;;;13.47;74.52;102106.59;4943817;28;19918;-71
2022/06/14 05:53:20;;;;;;;9.57;3.70;;;;;;;13.75;73.98;102103.06;4948658;28;20035;-71
2022/06/14 05:55:53;;;;;;;11.23;3.10;;;;;;;13.98;72.57;102103.47;4947440;28;20027;-71
2022/06/14 05:58:26;;;;;;;15.10;4.80;;;;;;;14.13;71.29;102102.97;4948510;28;20031;-71
2022/06/14 06:01:00;;;;;;;8.90;3.17;;;;;;;14.27;68.65;102101.63;4945103;28;20066;-71
2022/06/14 06:03:32;;;;;;;7.68;3.90;;;;;;;14.48;68.49;102111.75;4947573;28;20043;-71
2022/06/14 06:06:06;;;;;;;8.17;4.07;;;;;;;14.58;68.26;102110.75;4930930;28;20032;-71
2022/06/14 06:08:49;;;;;;;11.52;4.18;;;;;;;14.84;68.51;102106.53;4929203;28;20482;-71
2022/06/14 06:11:19;;;;;;;;;;;;;;;15.02;66.36;102106.50;4949712;28;20039;-71
2022/06/14 06:14:13;;;;;;;7.72;3.35;;;;;;;15.27;65.51;102107.47;4946660;28;20327;-72
2022/06/14 06:19:26;;;;;;;18.50;6.22;;;;;;;15.64;64.02;102107.16;4948098;28;20507;-71
2022/06/14 06:22:08;;;;;;;20.05;4.25;;;;;;;15.69;64.44;102114.50;4930937;28;20035;-71
2022/06/14 06:25:00;;;;;;;15.13;4.40;;;;;;;16.13;63.11;102112.53;4947175;28;20179;-71
2022/06/14 06:27:37;;;;;;;17.20;5.15;;;;;;;16.14;62.46;102114.19;4945981;28;20489;-71
2022/06/14 06:30:32;;;;;;;20.30;5.05;;;;;;;16.63;62.15;102116.03;4949680;28;20039;-71
2022/06/14 06:32:58;;;;;;;19.45;5.05;;;;;;;16.90;60.43;102111.47;4948541;28;20055;-71
2022/06/14 06:35:53;;;;;;;15.10;5.30;;;;;;;17.21;59.24;102110.72;4949517;28;20050;-71
2022/06/14 06:38:46;;;;;;;12.02;4.05;;;;;;;17.43;58.66;102114.44;4942018;28;20066;-71
2022/06/14 06:44:04;;;;;;;21.40;5.70;;;;;;;17.58;59.33;102115.34;4963201;28;20074;-71
2022/06/14 06:46:35;;;;;;;14.75;5.32;;;;;;;17.78;58.12;102128.03;4948345;28;20053;-71
2022/06/14 06:49:04;;;;;;;23.75;7.35;;;;;;;18.23;58.08;102118.63;4948862;28;20067;-71
2022/06/14 06:51:40;;;;;;;16.98;5.03;;;;;;;18.46;56.26;102122.09;4948798;28;20051;-71
2022/06/14 06:54:23;;;;;;;15.48;4.07;;;;;;;18.78;55.67;102125.44;4947600;28;21775;-71
2022/06/14 06:56:53;;;;;;;14.10;4.15;;;;;;;18.95;54.82;102117.41;4944893;28;20031;-71
2022/06/14 06:59:24;;;;;;;14.10;3.88;;;;;;;19.43;54.79;102125.75;4931809;28;20074;-71
2022/06/14 07:01:52;;;;;;;16.13;4.22;;;;;;;19.66;53.50;102120.38;4944230;28;20067;-72
2022/06/14 07:07:27;;;;;;;14.52;4.35;;;;;;;19.36;52.37;102127.47;4949015;28;20063;-71
2022/06/14 07:09:59;;;;;;;;;;;;;;;19.70;52.39;102112.94;4950859;28;20035;-71
2022/06/14 07:12:53;;;;;;;11.15;3.50;;;;;;;20.02;50.64;102122.22;4949903;28;19918;-71
2022/06/14 07:15:26;;;;;;;17.92;3.88;;;;;;;19.77;51.19;102117.28;4911981;28;20051;-71
2022/06/14 07:18:16;;;;;;;14.07;3.60;;;;;;;20.00;50.42;102121.59;4946481;28;20036;-72
2022/06/14 07:20:58;;;;;;;15.50;5.28;;;;;;;20.14;49.68;102114.66;4949201;28;20031;-71
2022/06/14 07:23:51;;;;;;;13.65;4.40;;;;;;;20.45;50.61;102118.78;4950200;28;20043;-71
2022/06/14 07:26:30;;;;;;;16.00;4.78;;;;;;;19.31;52.13;102120.16;4948544;28;20043;-71
2022/06/14 07:29:04;;;;;;;14.80;4.72;;;;;;;18.56;54.08;102129.72;4929882;28;20038;-71
2022/06/14 07:31:41;;;;;;;21.90;6.78;;;;;;;18.53;54.77;102124.81;4947323;28;20494;-71
2022/06/14 07:34:08;;;;;;;20.10;5.95;;;;;;;18.93;52.51;102117.59;4947257;28;20031;-71
2022/06/14 07:36:49;;;;;;;12.27;4.75;;;;;;;19.60;50.97;102121.13;4943271;28;20062;-71
2022/06/14 07:39:24;;;;;;;20.55;5.90;;;;;;;19.51;50.79;102117.75;4946257;28;20062;-72
2022/06/14 07:42:04;;;;;;;19.27;5.50;;;;;;;18.63;53.19;102121.97;4945409;28;20512;-71
2022/06/14 07:44:52;;;;;;;20.20;6.35;;;;;;;18.09;54.94;102131.50;4944520;28;20118;-71
2022/06/14 07:47:20;;;;;;;14.05;5.15;;;;;;;17.99;55.64;102122.22;4948149;28;20119;-71
2022/06/14 07:49:52;;;;;;;19.38;5.70;;;;;;;18.68;53.93;102122.22;4943413;28;20036;-71
2022/06/14 07:52:42;;;;;;;26.15;7.13;;;;;;;19.37;51.43;102116.78;4943962;28;20035;-72
2022/06/14 07:55:35;;;;;;;18.35;5.82;;;;;;;18.66;52.98;102116.31;4946165;28;20498;-72
2022/06/14 07:58:07;;;;;;;17.50;6.23;;;;;;;18.17;54.53;102125.38;4941929;28;20122;-71
2022/06/14 08:03:47;;;;;;;19.23;5.82;;;;;;;17.65;56.43;102118.94;4946678;28;20454;-71
2022/06/14 08:06:36;;;;;;;15.85;4.93;;;;;;;17.74;55.81;102113.66;4929606;29;20031;-72
2022/06/14 08:09:17;;;;;;;12.07;4.30;;;;;;;18.66;53.27;102113.69;4931981;28;20067;-71
2022/06/14 08:11:53;;;;;;;16.15;4.00;;;;;;;18.45;54.54;102115.19;4947035;28;20042;-71
2022/06/14 08:14:39;;;;;;;15.40;5.00;;;;;;;19.16;53.52;102100.94;4947396;28;20109;-71
2022/06/14 08:17:10;;;;;;;11.00;4.22;;;;;;;19.60;51.53;102097.44;4944730;28;20118;-71
2022/06/14 08:19:44;;;;;;;8.73;3.65;;;;;;;19.96;50.76;102097.44;4950520;28;20050;-71
2022/06/14 08:22:17;;;;;;;14.80;4.05;;;;;;;19.14;50.81;102098.47;4951874;28;20063;-71
2022/06/14 08:24:48;;;;;;;15.10;4.63;;;;;;;18.59;53.17;102100.47;4946743;28;20063;-71
2022/06/14 08:27:16;;;;;;;15.20;4.70;;;;;;;18.42;53.32;102101.59;4962590;28;20031;-71
2022/06/14 08:29:52;;;;;;;16.13;3.90;;;;;;;18.25;54.26;102096.47;4946181;28;20039;-71
2022/06/14 08:32:27;;;;;;;9.18;3.70;;;;;;;18.22;53.66;102094.19;4949016;28;20034;-72
2022/06/14 08:35:04;;;;;;;12.07;4.35;;;;;;;18.17;53.69;102087.84;4958766;28;20031;-72
2022/06/14 08:37:50;;;;;;;18.25;4.15;;;;;;;18.07;53.21;102085.44;4948183;28;20434;-71
2022/06/14 08:40:55;;;;;;;12.85;5.28;;;;;;;17.87;54.11;102082.44;4933564;28;20758;-71
2022/06/14 08:43:44;;;;;;;18.58;5.00;;;;;;;18.08;52.90;102081.81;4914914;28;20481;-72
2022/06/14 08:46:21;;;;;;;12.27;4.57;;;;;;;18.34;51.81;102080.66;4944038;28;20043;-71
2022/06/14 08:49:06;;;;;;;12.35;3.47;;;;;;;18.27;51.78;102086.63;4965489;28;20035;-72
2022/06/14 08:51:33;;;;;;;11.93;3.85;;;;;;;18.28;52.30;102077.72;4963275;28;20027;-71
2022/06/14 08:54:16;;;;;;;8.57;3.28;;;;;;;18.60;50.84;102078.44;4941967;28;20486;-71
2022/06/14 08:57:04;;;;;;;10.90;3.13;;;;;;;18.85;50.03;102076.47;4946218;28;20039;-71
2022/06/14 09:00:02;;;;;;;9.00;2.92;;;;;;;19.87;47.04;102076.72;4950018;28;20071;-71
2022/06/14 09:02:27;;;;;;;9.10;3.05;;;;;;;20.94;45.14;102073.13;4950736;28;20446;-71
2022/06/14 09:05:05;;;;;;;16.17;3.58;;;;;;;21.13;43.20;102063.69;4952791;28;20047;-71
2022/06/14 09:07:36;;;;;;;11.82;3.60;;;;;;;21.52;42.86;102060.44;4931745;29;20065;-72
2022/06/14 09:10:04;;;;;;;15.32;4.63;;;;;;;22.07;43.04;102068.25;4948960;28;20086;-72
2022/06/14 09:12:52;;;;;;;11.27;3.50;;;;;;;22.32;40.85;102059.75;4931577;28;20167;-72
2022/06/14 09:15:52;;;;;;;12.18;3.83;;;;;;;22.44;43.92;102063.44;4948175;28;20050;-72
2022/06/14 09:18:41;;;;;;;11.80;4.60;;;;;;;22.75;42.87;102059.31;4928335;28;20051;-71
2022/06/14 09:21:23;;;;;;;13.50;5.10;;;;;;;22.57;41.61;102057.31;4947312;28;20027;-71
2022/06/14 09:24:22;;;;;;;17.35;4.47;;;;;;;22.53;41.75;102061.38;4928891;28;20491;-71
2022/06/14 09:27:08;;;;;;;14.35;4.35;;;;;;;22.47;41.85;102062.19;4947005;28;20036;-71
2022/06/14 09:29:52;;;;;;;11.43;3.30;;;;;;;22.97;40.87;102057.22;4958515;28;20118;-72
2022/06/14 09:35:53;;;;;;;9.18;3.40;;;;;;;22.30;40.64;102061.78;4944885;28;20077;-71
2022/06/14 09:38:56;;;;;;;11.18;3.55;;;;;;;21.64;42.90;102068.59;4943777;28;20509;-71
2022/06/14 09:42:03;;;;;;;10.40;3.13;;;;;;;20.94;44.00;102070.50;4947917;28;20530;-71
2022/06/14 09:44:38;;;;;;;13.25;3.75;;;;;;;20.71;47.13;102068.94;4961580;28;20070;-71
2022/06/14 09:47:24;;;;;;;10.32;3.13;;;;;;;21.22;43.82;102064.38;4947863;28;20050;-71
2022/06/14 09:50:20;;;;;;;12.05;3.55;;;;;;;22.12;43.02;102059.75;4959976;28;20035;-71
2022/06/14 09:53:24;;;;;;;8.82;3.80;;;;;;;22.34;40.02;102065.69;4945680;28;20035;-71
2022/06/14 09:56:21;;;;;;;15.15;4.20;;;;;;;22.15;39.90;102060.16;4945907;28;20102;-71
2022/06/14 09:59:44;;;;;;;9.98;3.45;;;;;;;22.29;41.31;102057.53;4928656;28;20426;-71
2022/06/14 10:02:47;;;;;;;13.52;3.00;;;;;;;22.77;41.37;102045.88;4881319;29;20033;-71
2022/06/14 10:05:22;;;;;;;6.07;2.97;;;;;;;22.93;39.75;102056.00;4886257;29;20033;-71
2022/06/14 10:08:05;;;;;;;14.38;3.75;;;;;;;22.44;39.86;102049.41;4928273;28;20062;-71
2022/06/14 10:10:38;;;;;;;7.63;3.28;;;;;;;22.57;40.62;102045.94;4945729;28;21030;-71
2022/06/14 10:13:22;;;;;;;9.80;2.60;;;;;;;22.73;39.08;102042.84;4947187;28;20545;-71
2022/06/14 10:16:04;;;;;;;9.88;3.33;;;;;;;22.58;40.73;102047.53;4946201;28;20031;-71
2022/06/14 10:18:54;;;;;;;12.50;2.72;;;;;;;22.98;39.34;102042.16;4932513;28;20097;-71
2022/06/14 10:21:27;;;;;;;14.30;3.78;;;;;;;23.16;38.52;102036.22;4932680;28;20043;-71
2022/06/14 10:24:16;;;;;;;8.80;2.53;;;;;;;23.10;39.89;102032.59;4951394;28;20027;-71
2022/06/14 10:29:50;;;;;;;6.30;2.42;;;;;;;22.62;40.84;102027.63;4947759;28;20050;-72
2022/06/14 10:32:46;;;;;;;8.13;2.10;;;;;;;22.76;41.44;102033.69;4946338;28;20055;-72
2022/06/14 10:35:24;;;;;;;7.85;2.30;;;;;;;23.20;40.12;102019.72;4959204;28;20387;-72
2022/06/14 10:38:01;;;;;;;12.55;3.78;;;;;;;23.19;39.37;102012.81;4947328;28;20614;-71
2022/06/14 10:40:51;;;;;;;12.68;2.55;;;;;;;23.01;39.47;102008.16;4946542;28;20397;-71
2022/06/14 10:43:51;;;;;;;7.97;2.38;;;;;;;23.10;40.66;102006.13;4946760;28;20489;-71
2022/06/14 10:46:28;;;;;;;7.07;2.40;;;;;;;22.86;39.61;102007.63;4942384;28;20406;-71
2022/06/14 10:49:08;;;;;;;11.10;3.17;;;;;;;22.81;40.48;102010.06;4943276;28;20514;-72
2022/06/14 10:51:43;;;;;;;10.43;2.70;;;;;;;22.37;39.70;102011.59;4944307;28;20532;-71
2022/06/14 10:54:31;;;;;;;6.68;2.60;;;;;;;22.54;39.44;102002.22;4931191;28;20450;-71
2022/06/14 10:57:37;;;;;;;7.10;2.50;;;;;;;22.50;40.51;102001.81;4945603;28;20113;-71
2022/06/14 11:00:13;;;;;;;9.60;2.58;;;;;;;22.77;38.69;102000.94;4911960;28;20047;-71
2022/06/14 11:03:13;;;;;;;12.35;2.75;;;;;;;22.90;39.00;101991.13;4944992;28;20086;-72
2022/06/14 11:05:41;;;;;;;8.18;2.60;;;;;;;23.18;38.76;101986.56;4951017;28;20053;-71
2022/06/14 11:08:18;;;;;;;9.27;2.42;;;;;;;23.20;39.55;101987.16;4949302;28;20043;-71
2022/06/14 11:11:09;;;;;;;10.60;2.80;;;;;;;23.45;39.14;101987.22;4945646;28;20035;-72
2022/06/14 11:13:51;;;;;;;8.65;2.38;;;;;;;24.02;37.17;101984.59;4947727;28;20034;-72
2022/06/14 11:16:46;;;;;;;9.88;2.50;;;;;;;24.39;36.95;101982.00;4949717;28;20083;-71
2022/06/14 11:19:31;;;;;;;8.48;2.70;;;;;;;24.26;36.46;101981.13;4946427;28;20066;-72
2022/06/14 11:22:02;;;;;;;6.85;2.55;;;;;;;23.83;37.70;101975.81;4948531;28;20486;-71
2022/06/14 11:25:09;;;;;;;11.35;2.35;;;;;;;23.53;38.29;101965.81;4965522;28;20083;-71
2022/06/14 11:28:01;;;;;;;7.45;1.92;;;;;;;23.69;38.76;101956.50;4885980;29;20047;-72
2022/06/14 11:30:50;;;;;;;8.20;2.15;;;;;;;23.73;39.95;101955.06;4948677;28;20093;-72
2022/06/14 11:33:56;;;;;;;9.10;1.85;;;;;;;23.90;38.59;101958.81;4947857;28;20090;-72
2022/06/14 11:36:55;;;;;;;7.95;2.05;;;;;;;24.53;38.25;101946.41;4905904;28;20109;-72
2022/06/14 11:39:35;;;;;;;8.75;2.15;;;;;;;24.36;37.22;101946.16;4952414;28;20922;-72
2022/06/14 11:42:12;;;;;;;11.90;2.15;;;;;;;23.87;38.19;101943.38;4950688;28;20406;-72
2022/06/14 11:44:57;;;;;;;9.45;3.15;;;;;;;23.54;38.75;101935.66;4951074;28;20552;-71
2022/06/14 11:47:41;;;;;;;5.70;2.13;;;;;;;23.71;38.29;101931.47;4933468;29;20063;-72
2022/06/14 11:50:18;;;;;;;7.90;2.40;;;;;;;23.68;38.22;101936.38;4951475;28;20118;-72
2022/06/14 11:53:07;;;;;;;8.93;2.35;;;;;;;23.16;38.04;101935.72;4947846;28;20031;-71
2022/06/14 11:55:54;;;;;;;6.15;2.40;;;;;;;23.13;39.66;101926.34;4936788;28;20043;-72
2022/06/14 11:58:57;;;;;;;7.35;2.08;;;;;;;23.24;40.08;101922.22;4963314;28;20031;-71
2022/06/14 12:01:45;;;;;;;8.65;1.83;;;;;;;23.65;38.13;101920.91;4951084;28;20035;-71
2022/06/14 12:04:20;;;;;;;9.65;2.30;;;;;;;23.76;38.38;101922.06;4949652;28;20050;-72
2022/06/14 12:06:58;;;;;;;7.57;1.83;;;;;;;24.05;38.10;101909.97;4952923;28;20085;-72
2022/06/14 12:09:24;;;;;;;9.20;2.38;;;;;;;23.87;37.87;101919.53;4949983;28;20105;-71
2022/06/14 12:11:58;;;;;;;9.45;2.22;;;;;;;24.14;37.82;101921.91;4950197;28;20042;-71
2022/06/14 12:14:24;;;;;;;10.07;2.88;;;;;;;23.89;36.55;101922.75;4951078;28;20043;-72
2022/06/14 12:17:17;;;;;;;6.28;2.22;;;;;;;24.02;37.28;101913.09;4952209;28;20039;-72
2022/06/14 12:19:49;;;;;;;9.70;2.28;;;;;;;23.80;36.90;101913.47;4953021;28;20070;-72
2022/06/14 12:22:26;;;;;;;8.20;2.00;;;;;;;23.87;36.24;101914.22;4962244;28;20227;-72
2022/06/14 12:27:53;;;;;;;6.90;1.70;;;;;;;24.41;36.65;101908.38;4949161;28;20027;-72
2022/06/14 12:30:19;;;;;;;8.25;1.80;;;;;;;24.32;37.53;101909.69;4935165;28;20410;-72
2022/06/14 12:33:13;;;;;;;7.00;2.20;;;;;;;24.54;36.93;101904.78;4952560;28;20039;-72
2022/06/14 12:35:49;;;;;;;5.93;1.70;;;;;;;24.17;37.73;101896.84;4949271;28;20035;-72
2022/06/14 12:38:21;;;;;;;8.90;3.00;;;;;;;23.92;37.20;101895.03;4947248;28;20050;-72
2022/06/14 12:41:07;;;;;;;7.65;2.28;;;;;;;23.79;36.12;101888.03;4951151;28;20039;-71
2022/06/14 12:44:02;;;;;;;8.57;2.20;;;;;;;24.05;36.19;101883.50;4949843;28;20041;-72
2022/06/14 12:46:33;;;;;;;5.40;1.60;;;;;;;24.17;35.90;101873.81;4944606;28;20404;-71